sensor_id;sensor_type;location;lat;lon;timestamp;P1;durP1;ratioP1;P2;durP2;ratioP2
3875;SDS011;1953;51.222;6.624;2023-07-13T00:01:40;6.03;;;2.60;;
3875;SDS011;1953;51.222;6.624;2023-07-13T00:06:23;7.27;;;2.30;;
3875;SDS011;1953;51.222;6.624;2023-07-13T00:14:55;5.57;;;2.33;;
3875;SDS011;1953;51.222;6.624;2023-07-13T00:19:38;8.57;;;2.57;;
3875;SDS011;1953;51.222;6.624;2023-07-13T00:24:21;8.03;;;2.70;;
3875;SDS011;1953;51.222;6.624;2023-07-13T00:40:21;5.70;;;2.70;;
3875;SDS011;1953;51.222;6.624;2023-07-13T00:45:04;8.63;;;2.30;;
3875;SDS011;1953;51.222;6.624;2023-07-13T00:50:09;5.83;;;2.83;;
3875;SDS011;1953;51.222;6.624;2023-07-13T00:54:53;5.63;;;2.50;;
3875;SDS011;1953;51.222;6.624;2023-07-13T00:59:39;5.70;;;2.63;;
3875;SDS011;1953;51.222;6.624;2023-07-13T01:04:24;5.43;;;2.50;;
3875;SDS011;1953;51.222;6.624;2023-07-13T01:09:07;6.17;;;2.50;;
3875;SDS011;1953;51.222;6.624;2023-07-13T01:13:51;10.40;;;2.50;;
3875;SDS011;1953;51.222;6.624;2023-07-13T01:18:36;8.13;;;2.47;;
3875;SDS011;1953;51.222;6.624;2023-07-13T01:23:20;5.00;;;2.40;;
3875;SDS011;1953;51.222;6.624;2023-07-13T01:28:05;9.33;;;2.70;;
3875;SDS011;1953;51.222;6.624;2023-07-13T01:32:50;7.20;;;2.60;;
3875;SDS011;1953;51.222;6.624;2023-07-13T01:37:33;5.87;;;2.30;;
3875;SDS011;1953;51.222;6.624;2023-07-13T01:42:18;5.30;;;2.67;;
3875;SDS011;1953;51.222;6.624;2023-07-13T01:47:00;9.93;;;3.23;;
3875;SDS011;1953;51.222;6.624;2023-07-13T01:51:44;7.53;;;2.53;;
3875;SDS011;1953;51.222;6.624;2023-07-13T01:56:27;7.10;;;3.10;;
3875;SDS011;1953;51.222;6.624;2023-07-13T02:01:11;7.20;;;2.70;;
3875;SDS011;1953;51.222;6.624;2023-07-13T02:05:53;8.80;;;3.07;;
3875;SDS011;1953;51.222;6.624;2023-07-13T02:10:36;8.17;;;2.40;;
3875;SDS011;1953;51.222;6.624;2023-07-13T02:15:19;8.90;;;2.70;;
3875;SDS011;1953;51.222;6.624;2023-07-13T02:20:04;10.90;;;3.30;;
3875;SDS011;1953;51.222;6.624;2023-07-13T02:24:48;6.83;;;2.47;;
3875;SDS011;1953;51.222;6.624;2023-07-13T02:29:30;8.97;;;3.40;;
3875;SDS011;1953;51.222;6.624;2023-07-13T02:34:13;8.10;;;2.90;;
3875;SDS011;1953;51.222;6.624;2023-07-13T02:38:57;10.73;;;2.80;;
3875;SDS011;1953;51.222;6.624;2023-07-13T02:43:43;6.30;;;2.93;;
3875;SDS011;1953;51.222;6.624;2023-07-13T02:48:26;8.47;;;5.27;;
3875;SDS011;1953;51.222;6.624;2023-07-13T02:53:08;7.10;;;2.93;;
3875;SDS011;1953;51.222;6.624;2023-07-13T02:57:52;4.27;;;2.80;;
3875;SDS011;1953;51.222;6.624;2023-07-13T03:02:35;8.90;;;3.00;;
3875;SDS011;1953;51.222;6.624;2023-07-13T03:07:17;7.50;;;3.27;;
3875;SDS011;1953;51.222;6.624;2023-07-13T03:12:00;4.37;;;2.80;;
3875;SDS011;1953;51.222;6.624;2023-07-13T03:16:44;5.20;;;2.83;;
3875;SDS011;1953;51.222;6.624;2023-07-13T03:21:27;6.10;;;3.10;;
3875;SDS011;1953;51.222;6.624;2023-07-13T03:26:10;8.60;;;2.70;;
3875;SDS011;1953;51.222;6.624;2023-07-13T03:30:58;8.80;;;3.03;;
3875;SDS011;1953;51.222;6.624;2023-07-13T03:35:43;5.23;;;2.93;;
3875;SDS011;1953;51.222;6.624;2023-07-13T03:40:26;7.50;;;3.20;;
3875;SDS011;1953;51.222;6.624;2023-07-13T03:45:09;7.53;;;3.37;;
3875;SDS011;1953;51.222;6.624;2023-07-13T03:49:51;6.27;;;3.43;;
3875;SDS011;1953;51.222;6.624;2023-07-13T03:54:36;6.67;;;3.50;;
3875;SDS011;1953;51.222;6.624;2023-07-13T03:59:18;4.53;;;3.50;;
3875;SDS011;1953;51.222;6.624;2023-07-13T04:04:01;6.03;;;3.23;;
3875;SDS011;1953;51.222;6.624;2023-07-13T04:08:43;8.57;;;3.00;;
3875;SDS011;1953;51.222;6.624;2023-07-13T04:13:27;7.27;;;3.40;;
3875;SDS011;1953;51.222;6.624;2023-07-13T04:18:10;9.70;;;3.20;;
3875;SDS011;1953;51.222;6.624;2023-07-13T04:22:52;8.30;;;2.80;;
3875;SDS011;1953;51.222;6.624;2023-07-13T04:27:35;11.23;;;3.50;;
3875;SDS011;1953;51.222;6.624;2023-07-13T04:32:19;6.20;;;3.03;;
3875;SDS011;1953;51.222;6.624;2023-07-13T04:37:01;7.60;;;3.30;;
3875;SDS011;1953;51.222;6.624;2023-07-13T04:41:45;6.57;;;3.23;;
3875;SDS011;1953;51.222;6.624;2023-07-13T04:46:27;11.93;;;3.17;;
3875;SDS011;1953;51.222;6.624;2023-07-13T04:51:11;7.80;;;3.10;;
3875;SDS011;1953;51.222;6.624;2023-07-13T04:55:54;14.00;;;3.77;;
3875;SDS011;1953;51.222;6.624;2023-07-13T05:00:37;8.53;;;3.20;;
3875;SDS011;1953;51.222;6.624;2023-07-13T05:05:19;7.13;;;3.43;;
3875;SDS011;1953;51.222;6.624;2023-07-13T05:10:03;16.53;;;4.13;;
3875;SDS011;1953;51.222;6.624;2023-07-13T05:14:46;6.23;;;2.90;;
3875;SDS011;1953;51.222;6.624;2023-07-13T05:19:30;8.57;;;3.90;;
3875;SDS011;1953;51.222;6.624;2023-07-13T05:24:12;12.33;;;3.40;;
3875;SDS011;1953;51.222;6.624;2023-07-13T05:28:56;7.60;;;3.40;;
3875;SDS011;1953;51.222;6.624;2023-07-13T05:33:39;7.93;;;3.40;;
3875;SDS011;1953;51.222;6.624;2023-07-13T05:38:21;10.30;;;3.87;;
3875;SDS011;1953;51.222;6.624;2023-07-13T05:43:04;10.30;;;3.23;;
3875;SDS011;1953;51.222;6.624;2023-07-13T05:47:48;8.00;;;3.90;;
3875;SDS011;1953;51.222;6.624;2023-07-13T05:52:30;7.60;;;4.00;;
3875;SDS011;1953;51.222;6.624;2023-07-13T05:57:13;10.97;;;3.90;;
3875;SDS011;1953;51.222;6.624;2023-07-13T06:01:56;7.60;;;3.73;;
3875;SDS011;1953;51.222;6.624;2023-07-13T06:06:40;13.90;;;4.30;;
3875;SDS011;1953;51.222;6.624;2023-07-13T06:11:23;12.90;;;4.60;;
3875;SDS011;1953;51.222;6.624;2023-07-13T06:16:07;11.37;;;5.67;;
3875;SDS011;1953;51.222;6.624;2023-07-13T06:20:49;13.87;;;5.13;;
3875;SDS011;1953;51.222;6.624;2023-07-13T06:25:33;11.33;;;5.90;;
3875;SDS011;1953;51.222;6.624;2023-07-13T06:30:16;12.33;;;5.27;;
3875;SDS011;1953;51.222;6.624;2023-07-13T06:34:58;10.10;;;5.07;;
3875;SDS011;1953;51.222;6.624;2023-07-13T06:39:41;13.87;;;5.57;;
3875;SDS011;1953;51.222;6.624;2023-07-13T06:44:25;9.07;;;4.93;;
3875;SDS011;1953;51.222;6.624;2023-07-13T06:49:08;19.93;;;5.97;;
3875;SDS011;1953;51.222;6.624;2023-07-13T06:53:51;9.30;;;5.10;;
3875;SDS011;1953;51.222;6.624;2023-07-13T06:58:33;18.70;;;5.63;;
3875;SDS011;1953;51.222;6.624;2023-07-13T07:03:18;9.30;;;5.07;;
3875;SDS011;1953;51.222;6.624;2023-07-13T07:08:01;10.97;;;5.13;;
3875;SDS011;1953;51.222;6.624;2023-07-13T07:12:43;15.13;;;5.70;;
3875;SDS011;1953;51.222;6.624;2023-07-13T07:17:26;13.83;;;5.77;;
3875;SDS011;1953;51.222;6.624;2023-07-13T07:22:10;12.83;;;5.43;;
3875;SDS011;1953;51.222;6.624;2023-07-13T07:26:52;9.67;;;5.07;;
3875;SDS011;1953;51.222;6.624;2023-07-13T07:31:35;14.83;;;4.93;;
3875;SDS011;1953;51.222;6.624;2023-07-13T07:36:18;12.97;;;5.30;;
3875;SDS011;1953;51.222;6.624;2023-07-13T07:41:03;12.57;;;5.40;;
3875;SDS011;1953;51.222;6.624;2023-07-13T07:45:46;14.07;;;5.70;;
3875;SDS011;1953;51.222;6.624;2023-07-13T07:50:29;12.73;;;5.37;;
3875;SDS011;1953;51.222;6.624;2023-07-13T07:55:12;9.33;;;5.30;;
3875;SDS011;1953;51.222;6.624;2023-07-13T07:59:55;10.70;;;5.17;;
3875;SDS011;1953;51.222;6.624;2023-07-13T08:04:38;12.80;;;4.93;;
3875;SDS011;1953;51.222;6.624;2023-07-13T08:09:20;7.23;;;5.70;;
3875;SDS011;1953;51.222;6.624;2023-07-13T08:14:03;8.40;;;5.10;;
3875;SDS011;1953;51.222;6.624;2023-07-13T08:18:47;8.43;;;4.73;;
3875;SDS011;1953;51.222;6.624;2023-07-13T08:23:29;10.80;;;5.00;;
3875;SDS011;1953;51.222;6.624;2023-07-13T08:28:12;12.97;;;5.23;;
3875;SDS011;1953;51.222;6.624;2023-07-13T08:32:55;14.57;;;5.40;;
3875;SDS011;1953;51.222;6.624;2023-07-13T08:37:39;9.97;;;5.63;;
3875;SDS011;1953;51.222;6.624;2023-07-13T08:42:26;7.80;;;5.20;;
3875;SDS011;1953;51.222;6.624;2023-07-13T08:47:14;15.40;;;5.50;;
3875;SDS011;1953;51.222;6.624;2023-07-13T08:52:00;11.33;;;5.30;;
3875;SDS011;1953;51.222;6.624;2023-07-13T08:56:47;12.83;;;5.63;;
3875;SDS011;1953;51.222;6.624;2023-07-13T09:01:41;12.07;;;5.20;;
3875;SDS011;1953;51.222;6.624;2023-07-13T09:06:39;9.83;;;4.67;;
3875;SDS011;1953;51.222;6.624;2023-07-13T09:11:34;7.60;;;4.53;;
3875;SDS011;1953;51.222;6.624;2023-07-13T09:16:27;7.90;;;4.70;;
3875;SDS011;1953;51.222;6.624;2023-07-13T09:21:10;8.90;;;4.37;;
3875;SDS011;1953;51.222;6.624;2023-07-13T09:25:59;8.13;;;4.00;;
3875;SDS011;1953;51.222;6.624;2023-07-13T09:30:45;14.70;;;4.40;;
3875;SDS011;1953;51.222;6.624;2023-07-13T09:35:35;8.10;;;3.80;;
3875;SDS011;1953;51.222;6.624;2023-07-13T09:40:20;13.13;;;4.60;;
3875;SDS011;1953;51.222;6.624;2023-07-13T09:45:07;8.83;;;4.07;;
3875;SDS011;1953;51.222;6.624;2023-07-13T09:49:53;7.10;;;4.57;;
3875;SDS011;1953;51.222;6.624;2023-07-13T09:54:43;6.40;;;3.70;;
3875;SDS011;1953;51.222;6.624;2023-07-13T09:59:29;8.40;;;4.43;;
3875;SDS011;1953;51.222;6.624;2023-07-13T10:04:14;6.53;;;3.70;;
3875;SDS011;1953;51.222;6.624;2023-07-13T10:09:00;6.20;;;3.63;;
3875;SDS011;1953;51.222;6.624;2023-07-13T10:13:44;7.70;;;4.00;;
3875;SDS011;1953;51.222;6.624;2023-07-13T10:18:36;4.73;;;3.30;;
3875;SDS011;1953;51.222;6.624;2023-07-13T10:23:23;5.00;;;3.40;;
3875;SDS011;1953;51.222;6.624;2023-07-13T10:28:19;7.47;;;3.27;;
3875;SDS011;1953;51.222;6.624;2023-07-13T10:33:10;7.67;;;3.43;;
3875;SDS011;1953;51.222;6.624;2023-07-13T10:37:55;6.40;;;3.27;;
3875;SDS011;1953;51.222;6.624;2023-07-13T10:42:44;7.13;;;3.40;;
3875;SDS011;1953;51.222;6.624;2023-07-13T10:47:29;9.93;;;4.10;;
3875;SDS011;1953;51.222;6.624;2023-07-13T10:57:27;4.50;;;3.40;;
3875;SDS011;1953;51.222;6.624;2023-07-13T11:02:10;11.70;;;3.27;;
3875;SDS011;1953;51.222;6.624;2023-07-13T11:06:57;13.33;;;3.70;;
3875;SDS011;1953;51.222;6.624;2023-07-13T11:11:52;6.50;;;3.20;;
3875;SDS011;1953;51.222;6.624;2023-07-13T11:16:44;4.00;;;2.90;;
3875;SDS011;1953;51.222;6.624;2023-07-13T11:21:28;5.77;;;3.30;;
3875;SDS011;1953;51.222;6.624;2023-07-13T11:31:22;5.70;;;3.43;;
3875;SDS011;1953;51.222;6.624;2023-07-13T11:36:05;6.10;;;2.87;;
3875;SDS011;1953;51.222;6.624;2023-07-13T11:40:53;4.70;;;3.07;;
3875;SDS011;1953;51.222;6.624;2023-07-13T11:45:36;5.60;;;2.83;;
3875;SDS011;1953;51.222;6.624;2023-07-13T11:50:21;5.03;;;2.77;;
3875;SDS011;1953;51.222;6.624;2023-07-13T11:55:12;5.13;;;2.50;;
3875;SDS011;1953;51.222;6.624;2023-07-13T11:59:56;6.10;;;2.80;;
3875;SDS011;1953;51.222;6.624;2023-07-13T12:04:41;7.10;;;2.60;;
3875;SDS011;1953;51.222;6.624;2023-07-13T12:09:27;4.80;;;3.00;;
3875;SDS011;1953;51.222;6.624;2023-07-13T12:15:56;4.70;;;2.57;;
3875;SDS011;1953;51.222;6.624;2023-07-13T12:20:39;4.97;;;2.40;;
3875;SDS011;1953;51.222;6.624;2023-07-13T12:25:28;3.87;;;2.50;;
3875;SDS011;1953;51.222;6.624;2023-07-13T12:30:23;7.37;;;2.40;;
3875;SDS011;1953;51.222;6.624;2023-07-13T12:35:14;7.47;;;2.40;;
3875;SDS011;1953;51.222;6.624;2023-07-13T12:39:59;2.47;;;2.10;;
3875;SDS011;1953;51.222;6.624;2023-07-13T12:44:42;4.73;;;2.87;;
3875;SDS011;1953;51.222;6.624;2023-07-13T12:49:27;4.80;;;2.50;;
3875;SDS011;1953;51.222;6.624;2023-07-13T12:54:17;4.63;;;2.70;;
3875;SDS011;1953;51.222;6.624;2023-07-13T12:59:02;5.40;;;2.57;;
3875;SDS011;1953;51.222;6.624;2023-07-13T13:03:47;3.87;;;2.20;;
3875;SDS011;1953;51.222;6.624;2023-07-13T13:08:32;2.47;;;2.20;;
3875;SDS011;1953;51.222;6.624;2023-07-13T13:13:17;3.30;;;1.90;;
3875;SDS011;1953;51.222;6.624;2023-07-13T13:18:00;2.37;;;2.17;;
3875;SDS011;1953;51.222;6.624;2023-07-13T13:22:42;4.90;;;2.40;;
3875;SDS011;1953;51.222;6.624;2023-07-13T13:27:25;5.00;;;2.30;;
3875;SDS011;1953;51.222;6.624;2023-07-13T13:32:10;4.13;;;2.27;;
3875;SDS011;1953;51.222;6.624;2023-07-13T13:36:54;3.10;;;2.30;;
3875;SDS011;1953;51.222;6.624;2023-07-13T13:41:37;3.40;;;2.90;;
3875;SDS011;1953;51.222;6.624;2023-07-13T13:46:20;3.67;;;2.27;;
3875;SDS011;1953;51.222;6.624;2023-07-13T13:51:11;2.57;;;2.10;;
3875;SDS011;1953;51.222;6.624;2023-07-13T13:55:56;2.50;;;2.30;;
3875;SDS011;1953;51.222;6.624;2023-07-13T14:00:40;2.43;;;1.90;;
3875;SDS011;1953;51.222;6.624;2023-07-13T14:05:26;3.00;;;2.10;;
3875;SDS011;1953;51.222;6.624;2023-07-13T14:10:11;6.33;;;2.70;;
3875;SDS011;1953;51.222;6.624;2023-07-13T14:14:56;3.67;;;2.23;;
3875;SDS011;1953;51.222;6.624;2023-07-13T14:19:39;4.87;;;2.60;;
3875;SDS011;1953;51.222;6.624;2023-07-13T14:24:22;3.63;;;2.50;;
3875;SDS011;1953;51.222;6.624;2023-07-13T14:29:10;6.97;;;2.87;;
3875;SDS011;1953;51.222;6.624;2023-07-13T14:33:55;4.50;;;3.00;;
3875;SDS011;1953;51.222;6.624;2023-07-13T14:38:38;3.67;;;2.70;;
3875;SDS011;1953;51.222;6.624;2023-07-13T14:43:21;5.30;;;3.40;;
3875;SDS011;1953;51.222;6.624;2023-07-13T14:48:08;3.83;;;2.87;;
3875;SDS011;1953;51.222;6.624;2023-07-13T14:52:55;4.00;;;3.30;;
3875;SDS011;1953;51.222;6.624;2023-07-13T14:57:38;5.03;;;3.03;;
3875;SDS011;1953;51.222;6.624;2023-07-13T15:02:22;3.30;;;2.90;;
3875;SDS011;1953;51.222;6.624;2023-07-13T15:07:10;3.30;;;2.80;;
3875;SDS011;1953;51.222;6.624;2023-07-13T15:11:54;6.40;;;3.00;;
3875;SDS011;1953;51.222;6.624;2023-07-13T15:16:37;4.93;;;3.40;;
3875;SDS011;1953;51.222;6.624;2023-07-13T15:21:20;4.07;;;3.10;;
3875;SDS011;1953;51.222;6.624;2023-07-13T15:26:07;8.23;;;4.37;;
3875;SDS011;1953;51.222;6.624;2023-07-13T15:30:53;6.27;;;4.03;;
3875;SDS011;1953;51.222;6.624;2023-07-13T15:35:36;6.30;;;4.60;;
3875;SDS011;1953;51.222;6.624;2023-07-13T15:40:19;9.47;;;4.53;;
3875;SDS011;1953;51.222;6.624;2023-07-13T15:45:04;6.43;;;3.80;;
3875;SDS011;1953;51.222;6.624;2023-07-13T15:49:47;9.73;;;3.77;;
3875;SDS011;1953;51.222;6.624;2023-07-13T15:54:30;4.67;;;3.93;;
3875;SDS011;1953;51.222;6.624;2023-07-13T15:59:13;4.00;;;3.60;;
3875;SDS011;1953;51.222;6.624;2023-07-13T16:03:57;7.77;;;3.27;;
3875;SDS011;1953;51.222;6.624;2023-07-13T16:08:40;6.57;;;3.10;;
3875;SDS011;1953;51.222;6.624;2023-07-13T16:13:23;5.73;;;3.30;;
3875;SDS011;1953;51.222;6.624;2023-07-13T16:18:06;7.50;;;2.60;;
3875;SDS011;1953;51.222;6.624;2023-07-13T16:22:50;4.30;;;3.00;;
3875;SDS011;1953;51.222;6.624;2023-07-13T16:27:35;4.13;;;2.60;;
3875;SDS011;1953;51.222;6.624;2023-07-13T16:32:17;7.17;;;3.70;;
3875;SDS011;1953;51.222;6.624;2023-07-13T16:37:00;3.37;;;2.87;;
3875;SDS011;1953;51.222;6.624;2023-07-13T16:41:47;4.00;;;2.97;;
3875;SDS011;1953;51.222;6.624;2023-07-13T16:46:29;6.03;;;2.90;;
3875;SDS011;1953;51.222;6.624;2023-07-13T16:51:12;4.07;;;2.97;;
3875;SDS011;1953;51.222;6.624;2023-07-13T16:55:54;4.03;;;2.60;;
3875;SDS011;1953;51.222;6.624;2023-07-13T17:00:41;3.07;;;2.77;;
3875;SDS011;1953;51.222;6.624;2023-07-13T17:05:24;4.07;;;2.80;;
3875;SDS011;1953;51.222;6.624;2023-07-13T17:10:09;4.23;;;2.77;;
3875;SDS011;1953;51.222;6.624;2023-07-13T17:15:00;4.40;;;2.50;;
3875;SDS011;1953;51.222;6.624;2023-07-13T17:19:45;2.57;;;2.37;;
3875;SDS011;1953;51.222;6.624;2023-07-13T17:24:28;4.77;;;2.50;;
3875;SDS011;1953;51.222;6.624;2023-07-13T17:29:13;3.23;;;2.63;;
3875;SDS011;1953;51.222;6.624;2023-07-13T17:33:55;2.90;;;2.60;;
3875;SDS011;1953;51.222;6.624;2023-07-13T17:38:41;3.73;;;2.57;;
3875;SDS011;1953;51.222;6.624;2023-07-13T17:43:24;2.27;;;2.07;;
3875;SDS011;1953;51.222;6.624;2023-07-13T17:48:07;3.20;;;2.50;;
3875;SDS011;1953;51.222;6.624;2023-07-13T17:52:52;3.10;;;2.43;;
3875;SDS011;1953;51.222;6.624;2023-07-13T17:57:37;4.87;;;3.20;;
3875;SDS011;1953;51.222;6.624;2023-07-13T18:02:20;5.43;;;2.70;;
3875;SDS011;1953;51.222;6.624;2023-07-13T18:07:04;8.33;;;2.60;;
3875;SDS011;1953;51.222;6.624;2023-07-13T18:11:58;3.57;;;2.70;;
3875;SDS011;1953;51.222;6.624;2023-07-13T18:16:42;3.47;;;2.30;;
3875;SDS011;1953;51.222;6.624;2023-07-13T18:21:34;3.90;;;2.93;;
3875;SDS011;1953;51.222;6.624;2023-07-13T18:26:17;5.50;;;2.77;;
3875;SDS011;1953;51.222;6.624;2023-07-13T18:31:01;7.70;;;3.20;;
3875;SDS011;1953;51.222;6.624;2023-07-13T18:35:45;4.40;;;3.60;;
3875;SDS011;1953;51.222;6.624;2023-07-13T18:40:28;5.80;;;3.13;;
3875;SDS011;1953;51.222;6.624;2023-07-13T18:45:11;5.00;;;3.60;;
3875;SDS011;1953;51.222;6.624;2023-07-13T18:49:43;4.80;;;3.30;;
3875;SDS011;1953;51.222;6.624;2023-07-13T18:54:27;5.90;;;3.37;;
3875;SDS011;1953;51.222;6.624;2023-07-13T18:59:10;7.33;;;3.67;;
3875;SDS011;1953;51.222;6.624;2023-07-13T19:03:53;6.77;;;3.63;;
3875;SDS011;1953;51.222;6.624;2023-07-13T19:08:37;4.30;;;3.13;;
3875;SDS011;1953;51.222;6.624;2023-07-13T19:13:25;6.27;;;3.20;;
3875;SDS011;1953;51.222;6.624;2023-07-13T19:18:11;4.20;;;3.53;;
3875;SDS011;1953;51.222;6.624;2023-07-13T19:22:59;11.27;;;4.07;;
3875;SDS011;1953;51.222;6.624;2023-07-13T19:27:44;5.07;;;3.53;;
3875;SDS011;1953;51.222;6.624;2023-07-13T19:32:29;7.60;;;3.30;;
3875;SDS011;1953;51.222;6.624;2023-07-13T19:37:14;5.33;;;3.43;;
3875;SDS011;1953;51.222;6.624;2023-07-13T19:42:03;7.17;;;4.03;;
3875;SDS011;1953;51.222;6.624;2023-07-13T19:46:56;4.50;;;3.90;;
3875;SDS011;1953;51.222;6.624;2023-07-13T19:51:41;6.60;;;3.53;;
3875;SDS011;1953;51.222;6.624;2023-07-13T19:56:27;3.83;;;3.43;;
3875;SDS011;1953;51.222;6.624;2023-07-13T20:01:10;7.33;;;3.77;;
3875;SDS011;1953;51.222;6.624;2023-07-13T20:05:53;5.73;;;4.20;;
3875;SDS011;1953;51.222;6.624;2023-07-13T20:10:38;6.43;;;4.13;;
3875;SDS011;1953;51.222;6.624;2023-07-13T20:15:22;7.77;;;4.63;;
3875;SDS011;1953;51.222;6.624;2023-07-13T20:20:15;6.67;;;4.27;;
3875;SDS011;1953;51.222;6.624;2023-07-13T20:25:10;5.83;;;3.80;;
3875;SDS011;1953;51.222;6.624;2023-07-13T20:29:58;3.47;;;3.17;;
3875;SDS011;1953;51.222;6.624;2023-07-13T20:34:40;5.90;;;3.70;;
3875;SDS011;1953;51.222;6.624;2023-07-13T20:39:25;4.30;;;3.10;;
3875;SDS011;1953;51.222;6.624;2023-07-13T20:44:07;9.83;;;3.67;;
3875;SDS011;1953;51.222;6.624;2023-07-13T20:48:52;6.93;;;3.90;;
3875;SDS011;1953;51.222;6.624;2023-07-13T20:53:35;7.60;;;4.03;;
3875;SDS011;1953;51.222;6.624;2023-07-13T20:58:18;5.17;;;3.60;;
3875;SDS011;1953;51.222;6.624;2023-07-13T21:03:01;6.20;;;3.80;;
3875;SDS011;1953;51.222;6.624;2023-07-13T21:07:48;9.57;;;4.07;;
3875;SDS011;1953;51.222;6.624;2023-07-13T21:12:31;5.43;;;3.90;;
3875;SDS011;1953;51.222;6.624;2023-07-13T21:17:13;5.00;;;4.00;;
3875;SDS011;1953;51.222;6.624;2023-07-13T21:21:57;10.03;;;4.20;;
3875;SDS011;1953;51.222;6.624;2023-07-13T21:26:41;6.80;;;4.40;;
3875;SDS011;1953;51.222;6.624;2023-07-13T21:31:24;7.83;;;4.50;;
3875;SDS011;1953;51.222;6.624;2023-07-13T21:36:08;7.50;;;4.93;;
3875;SDS011;1953;51.222;6.624;2023-07-13T21:40:52;9.50;;;4.30;;
3875;SDS011;1953;51.222;6.624;2023-07-13T21:45:39;6.60;;;4.87;;
3875;SDS011;1953;51.222;6.624;2023-07-13T21:50:24;7.33;;;4.60;;
3875;SDS011;1953;51.222;6.624;2023-07-13T21:55:16;8.13;;;4.67;;
3875;SDS011;1953;51.222;6.624;2023-07-13T22:00:02;11.53;;;4.73;;
3875;SDS011;1953;51.222;6.624;2023-07-13T22:04:50;6.87;;;4.27;;
3875;SDS011;1953;51.222;6.624;2023-07-13T22:09:32;11.07;;;4.83;;
3875;SDS011;1953;51.222;6.624;2023-07-13T22:14:15;7.87;;;4.20;;
3875;SDS011;1953;51.222;6.624;2023-07-13T22:18:59;7.33;;;4.30;;
3875;SDS011;1953;51.222;6.624;2023-07-13T22:23:45;5.60;;;4.43;;
3875;SDS011;1953;51.222;6.624;2023-07-13T22:28:28;9.40;;;4.50;;
3875;SDS011;1953;51.222;6.624;2023-07-13T22:33:14;9.80;;;4.37;;
3875;SDS011;1953;51.222;6.624;2023-07-13T22:37:58;6.23;;;4.40;;
3875;SDS011;1953;51.222;6.624;2023-07-13T22:42:42;7.20;;;5.03;;
3875;SDS011;1953;51.222;6.624;2023-07-13T22:47:25;6.13;;;4.73;;
3875;SDS011;1953;51.222;6.624;2023-07-13T22:52:09;9.70;;;5.03;;
3875;SDS011;1953;51.222;6.624;2023-07-13T22:56:54;6.63;;;4.20;;
3875;SDS011;1953;51.222;6.624;2023-07-13T23:01:38;7.87;;;4.37;;
3875;SDS011;1953;51.222;6.624;2023-07-13T23:06:22;8.57;;;4.33;;
3875;SDS011;1953;51.222;6.624;2023-07-13T23:11:08;6.77;;;4.77;;
3875;SDS011;1953;51.222;6.624;2023-07-13T23:15:53;6.70;;;4.50;;
3875;SDS011;1953;51.222;6.624;2023-07-13T23:20:38;8.67;;;4.23;;
3875;SDS011;1953;51.222;6.624;2023-07-13T23:25:21;8.93;;;4.63;;
3875;SDS011;1953;51.222;6.624;2023-07-13T23:30:06;5.50;;;4.13;;
3875;SDS011;1953;51.222;6.624;2023-07-13T23:34:54;7.37;;;5.20;;
3875;SDS011;1953;51.222;6.624;2023-07-13T23:39:38;7.90;;;4.70;;
3875;SDS011;1953;51.222;6.624;2023-07-13T23:44:20;6.87;;;4.73;;
3875;SDS011;1953;51.222;6.624;2023-07-13T23:49:04;14.43;;;4.97;;
3875;SDS011;1953;51.222;6.624;2023-07-13T23:53:54;7.90;;;4.83;;
3875;SDS011;1953;51.222;6.624;2023-07-13T23:58:38;10.00;;;4.60;;
